天津 の空港の天気 - METARとTAF

天津濱海国際空港 ( ZBTJ / TSN ) - 中国 天津市
飛行場実況気象(Metar)
観測時間02/06 04:00 CST (02/05 20:00 UTC)
風向・風速東 2m/s
視程2800m
天気現象もや
なし
気温-1℃
湿度80%
気圧1021hPa
METARZBTJ 052000Z 08002MPS 2800 BR NSC M01/M04 Q1021 NOSIG
過去の天気等 Google飛行場航空写真 Wunderground天気予報

過去48時間のMETAR

飛行場予報(TAF)
発表時間: 2/05 23:02 CST (2/05 15:02 UTC)
予報対象時間: 6日2時 CST ~ 7日2時 CST
風向・風速東 4m/s
視程2000m
天気現象もや
なし
6日5時 CST ~ 6日6時 CST に徐々に
視程3000m
天気現象煙霧
TAF ZBTJ 051502Z 0518/0618 08004MPS 2000 BR NSC TX07/0606Z TNM04/0523Z
BECMG 0521/0522 3000 HZ